createdAt,value
2016-12-02T00:00:21.745Z,934.82
2016-12-02T00:01:34.799Z,934.79
2016-12-02T00:02:48.427Z,934.85
2016-12-02T00:04:02.038Z,934.81
2016-12-02T00:05:15.132Z,934.82
2016-12-02T00:06:28.270Z,934.75
2016-12-02T00:07:41.925Z,934.83
2016-12-02T00:08:55.039Z,934.83
2016-12-02T00:10:08.144Z,934.88
2016-12-02T00:11:21.244Z,934.88
2016-12-02T00:12:34.816Z,934.89
2016-12-02T00:13:46.825Z,934.88
2016-12-02T00:14:59.697Z,934.92
2016-12-02T00:16:13.396Z,934.93
2016-12-02T00:17:26.467Z,934.97
2016-12-02T00:18:39.732Z,934.97
2016-12-02T00:19:53.392Z,934.94
2016-12-02T00:21:07.063Z,934.95
2016-12-02T00:22:20.357Z,934.91
2016-12-02T00:23:33.502Z,934.94
2016-12-02T00:24:47.213Z,934.96
2016-12-02T00:26:00.380Z,934.92
2016-12-02T00:27:14.072Z,934.9
2016-12-02T00:28:27.698Z,934.88
2016-12-02T00:29:40.859Z,934.89
2016-12-02T00:30:53.987Z,934.9
2016-12-02T00:32:07.908Z,934.9
2016-12-02T00:33:20.984Z,934.94
2016-12-02T00:34:34.687Z,934.87
2016-12-02T00:35:48.370Z,934.91
2016-12-02T00:37:01.982Z,934.84
2016-12-02T00:38:15.599Z,934.84
2016-12-02T00:39:29.238Z,934.86
2016-12-02T00:40:41.850Z,934.88
2016-12-02T00:41:55.476Z,934.93
2016-12-02T00:43:08.572Z,934.99
2016-12-02T00:44:21.686Z,935.03
2016-12-02T00:45:35.367Z,935.02
2016-12-02T00:46:48.460Z,935.04
2016-12-02T00:48:02.046Z,935.03
2016-12-02T00:49:15.139Z,934.99
2016-12-02T00:50:28.780Z,934.99
2016-12-02T00:51:42.417Z,935
2016-12-02T00:52:55.997Z,934.99
2016-12-02T00:54:09.678Z,935
2016-12-02T00:55:22.181Z,934.99
2016-12-02T00:56:35.844Z,934.99
2016-12-02T00:57:49.517Z,935.02
2016-12-02T00:59:03.142Z,934.98
2016-12-02T01:00:16.286Z,935.01
2016-12-02T01:01:30.004Z,934.97
2016-12-02T01:02:43.663Z,934.98
2016-12-02T01:03:57.328Z,934.99
2016-12-02T01:05:11.034Z,934.95
2016-12-02T01:06:24.147Z,934.98
2016-12-02T01:07:37.285Z,934.98
2016-12-02T01:08:50.908Z,934.96
2016-12-02T01:10:04.575Z,934.93
2016-12-02T01:11:17.722Z,934.88
2016-12-02T01:12:30.867Z,934.89
2016-12-02T01:13:44.576Z,934.9
2016-12-02T01:14:58.364Z,934.94
2016-12-02T01:16:11.452Z,934.91
2016-12-02T01:17:25.083Z,934.94
2016-12-02T01:18:38.580Z,934.89
2016-12-02T01:19:52.041Z,934.89
2016-12-02T01:21:05.396Z,934.92
2016-12-02T01:22:18.485Z,934.93
2016-12-02T01:23:31.612Z,934.9
2016-12-02T01:24:44.699Z,934.9
2016-12-02T01:25:57.786Z,934.95
2016-12-02T01:27:11.378Z,934.95
2016-12-02T01:28:25.011Z,934.92
2016-12-02T01:29:38.693Z,934.91
2016-12-02T01:30:52.294Z,934.85
2016-12-02T01:32:05.653Z,934.83
2016-12-02T01:33:19.291Z,934.79
2016-12-02T01:34:32.945Z,934.81
2016-12-02T01:35:46.616Z,934.78
2016-12-02T01:37:00.295Z,934.77
2016-12-02T01:38:13.666Z,934.74
2016-12-02T01:39:26.863Z,934.74
2016-12-02T01:40:40.240Z,934.75
2016-12-02T01:41:53.874Z,934.74
2016-12-02T01:43:07.516Z,934.75
2016-12-02T01:44:20.070Z,934.72
2016-12-02T01:45:32.925Z,934.71
2016-12-02T01:46:45.766Z,934.71
2016-12-02T01:47:58.934Z,934.68
2016-12-02T01:49:12.578Z,934.68
2016-12-02T01:50:25.847Z,934.65
2016-12-02T01:51:39.677Z,934.63
2016-12-02T01:52:53.308Z,934.63
2016-12-02T01:54:06.955Z,934.63
2016-12-02T01:55:20.600Z,934.62
2016-12-02T01:56:34.225Z,934.63
2016-12-02T01:57:47.804Z,934.62
2016-12-02T01:59:01.444Z,934.58
2016-12-02T02:00:15.142Z,934.55
2016-12-02T02:01:27.755Z,934.57
2016-12-02T02:02:41.345Z,934.53
2016-12-02T02:03:54.161Z,934.56
2016-12-02T02:05:08.004Z,934.61
2016-12-02T02:06:20.858Z,934.61
2016-12-02T02:07:33.434Z,934.59
2016-12-02T02:08:47.335Z,934.58
2016-12-02T02:10:01.005Z,934.59
2016-12-02T02:11:14.632Z,934.55
2016-12-02T02:12:28.348Z,934.53
2016-12-02T02:13:41.502Z,934.51
2016-12-02T02:14:55.085Z,934.49
2016-12-02T02:16:08.744Z,934.51
2016-12-02T02:17:22.392Z,934.48
2016-12-02T02:18:35.253Z,934.46
2016-12-02T02:19:48.390Z,934.49
2016-12-02T02:21:02.109Z,934.5
2016-12-02T02:22:15.844Z,934.5
2016-12-02T02:23:29.458Z,934.51
2016-12-02T02:24:43.065Z,934.48
2016-12-02T02:25:56.737Z,934.49
2016-12-02T02:27:09.323Z,934.45
2016-12-02T02:28:22.960Z,934.43
2016-12-02T02:29:36.828Z,934.45
2016-12-02T02:30:49.676Z,934.37
2016-12-02T02:32:02.610Z,934.38
2016-12-02T02:33:16.285Z,934.4
2016-12-02T02:35:00.967Z,934.32
2016-12-02T02:36:14.092Z,934.39
2016-12-02T02:37:27.774Z,934.31
2016-12-02T02:39:49.509Z,934.34
2016-12-02T02:41:03.109Z,934.36
2016-12-02T02:42:16.683Z,934.33
2016-12-02T02:43:30.267Z,934.35
2016-12-02T02:44:43.608Z,934.28
2016-12-02T02:45:56.898Z,934.28
2016-12-02T02:47:09.989Z,934.29
2016-12-02T02:48:22.999Z,934.27
2016-12-02T02:49:36.008Z,934.29
2016-12-02T02:50:49.044Z,934.27
2016-12-02T02:52:02.110Z,934.28
2016-12-02T02:53:15.674Z,934.26
2016-12-02T02:54:28.705Z,934.25
2016-12-02T02:55:41.999Z,934.29
2016-12-02T02:56:55.610Z,934.23
2016-12-02T02:58:08.416Z,934.2
2016-12-02T02:59:21.488Z,934.18
2016-12-02T03:00:35.079Z,934.17
2016-12-02T03:01:48.727Z,934.14
2016-12-02T03:03:02.359Z,934.13
2016-12-02T03:04:15.455Z,934.12
2016-12-02T03:05:29.013Z,934.14
2016-12-02T03:06:42.519Z,934.11
2016-12-02T03:07:56.157Z,934.11
2016-12-02T03:10:54.373Z,934.06
2016-12-02T03:12:07.954Z,934.05
2016-12-02T03:13:21.561Z,934.04
2016-12-02T03:14:34.631Z,934
2016-12-02T03:15:47.707Z,934.02
2016-12-02T03:17:00.981Z,933.95
2016-12-02T03:18:13.093Z,933.96
2016-12-02T03:19:25.769Z,933.95
2016-12-02T03:20:39.302Z,933.93
2016-12-02T03:21:52.843Z,933.92
2016-12-02T03:23:06.796Z,933.92
2016-12-02T03:24:20.483Z,933.92
2016-12-02T03:25:33.561Z,933.92
2016-12-02T03:26:46.584Z,933.9
2016-12-02T03:28:00.144Z,933.9
2016-12-02T03:29:13.489Z,933.92
2016-12-02T03:30:26.831Z,933.92
2016-12-02T03:31:40.446Z,933.9
2016-12-02T03:32:54.001Z,933.92
2016-12-02T03:34:07.039Z,933.87
2016-12-02T03:35:20.591Z,933.9
2016-12-02T03:36:33.592Z,933.88
2016-12-02T03:37:47.253Z,933.84
2016-12-02T03:39:00.804Z,933.83
2016-12-02T03:40:13.808Z,933.8
2016-12-02T03:41:27.093Z,933.82
2016-12-02T03:42:39.954Z,933.8
2016-12-02T03:43:52.979Z,933.8
2016-12-02T03:45:06.894Z,933.79
2016-12-02T03:46:19.937Z,933.78
2016-12-02T03:47:33.026Z,933.71
2016-12-02T03:48:46.624Z,933.67
2016-12-02T03:50:00.189Z,933.67
2016-12-02T03:51:13.179Z,933.58
2016-12-02T03:52:26.760Z,933.63
2016-12-02T03:53:40.369Z,933.58
2016-12-02T03:54:52.875Z,933.56
2016-12-02T03:56:06.399Z,933.56
2016-12-02T03:57:20.351Z,933.58
2016-12-02T03:58:33.379Z,933.58
2016-12-02T03:59:47.294Z,933.54
2016-12-02T04:01:00.316Z,933.53
2016-12-02T04:02:14.180Z,933.57
2016-12-02T04:03:27.290Z,933.55
2016-12-02T04:04:41.045Z,933.48
2016-12-02T04:05:54.667Z,933.49
2016-12-02T04:07:08.225Z,933.44
2016-12-02T04:08:21.540Z,933.44
2016-12-02T04:09:35.101Z,933.46
2016-12-02T04:10:48.207Z,933.45
2016-12-02T04:12:01.791Z,933.43
2016-12-02T04:13:14.864Z,933.41
2016-12-02T04:14:27.922Z,933.39
2016-12-02T04:15:41.544Z,933.36
2016-12-02T04:16:54.591Z,933.35
2016-12-02T04:18:08.157Z,933.33
2016-12-02T04:21:05.650Z,933.36
2016-12-02T04:22:19.246Z,933.35
2016-12-02T04:23:32.298Z,933.32
2016-12-02T04:24:45.866Z,933.32
2016-12-02T04:25:59.449Z,933.32
2016-12-02T04:27:12.981Z,933.3
2016-12-02T04:28:26.555Z,933.29
2016-12-02T04:29:40.129Z,933.29
2016-12-02T04:30:53.713Z,933.25
2016-12-02T04:32:07.293Z,933.22
2016-12-02T04:33:20.843Z,933.19
2016-12-02T04:34:34.401Z,933.16
2016-12-02T04:35:47.440Z,933.11
2016-12-02T04:37:00.975Z,933.16
2016-12-02T04:38:14.575Z,933.18
2016-12-02T04:39:28.115Z,933.18
2016-12-02T04:40:41.105Z,933.12
2016-12-02T04:41:54.452Z,933.13
2016-12-02T04:43:08.096Z,933.11
2016-12-02T04:44:21.692Z,933.08
2016-12-02T04:45:35.261Z,933.09
2016-12-02T04:46:48.838Z,933.12
2016-12-02T04:48:01.841Z,933.12
2016-12-02T04:49:15.427Z,933.14
2016-12-02T04:50:27.936Z,933.11
2016-12-02T04:51:41.477Z,933.05
2016-12-02T04:52:55.065Z,933.08
2016-12-02T04:54:08.665Z,933.09
2016-12-02T04:55:21.657Z,933.08
2016-12-02T04:56:35.204Z,933.05
2016-12-02T04:57:48.463Z,933.03
2016-12-02T04:59:01.560Z,933
2016-12-02T05:00:14.607Z,932.99
2016-12-02T05:01:28.110Z,932.98
2016-12-02T05:02:41.644Z,932.97
2016-12-02T05:03:55.156Z,933
2016-12-02T05:05:08.770Z,932.98
2016-12-02T05:06:21.808Z,933.02
2016-12-02T05:07:35.372Z,933
2016-12-02T05:08:48.930Z,932.97
2016-12-02T05:10:02.541Z,932.97
2016-12-02T05:11:15.115Z,932.94
2016-12-02T05:12:28.708Z,932.99
2016-12-02T05:13:42.305Z,932.97
2016-12-02T05:14:55.870Z,932.99
2016-12-02T05:16:08.901Z,932.99
2016-12-02T05:17:22.479Z,933.01
2016-12-02T05:18:36.046Z,932.95
2016-12-02T05:19:49.118Z,932.96
2016-12-02T05:21:02.111Z,932.95
2016-12-02T05:22:15.143Z,933
2016-12-02T05:23:28.744Z,933
2016-12-02T05:24:42.303Z,933.01
2016-12-02T05:25:54.260Z,932.99
2016-12-02T05:27:08.044Z,932.97
2016-12-02T05:28:21.591Z,932.95
2016-12-02T05:29:34.608Z,932.9
2016-12-02T05:30:47.154Z,932.96
2016-12-02T05:32:00.758Z,932.94
2016-12-02T05:33:13.800Z,932.93
2016-12-02T05:34:26.840Z,932.94
2016-12-02T05:35:39.876Z,932.94
2016-12-02T05:36:53.448Z,932.85
2016-12-02T05:38:07.050Z,932.84
2016-12-02T05:39:20.519Z,932.91
2016-12-02T05:40:34.011Z,932.87
2016-12-02T05:41:46.609Z,932.87
2016-12-02T05:43:00.277Z,932.88
2016-12-02T05:44:13.455Z,932.89
2016-12-02T05:45:27.026Z,932.85
2016-12-02T05:46:40.595Z,932.83
2016-12-02T05:47:54.206Z,932.82
2016-12-02T05:49:08.042Z,932.85
2016-12-02T05:50:20.508Z,932.84
2016-12-02T05:51:34.093Z,932.85
2016-12-02T05:52:47.139Z,932.81
2016-12-02T05:54:00.148Z,932.81
2016-12-02T05:55:13.692Z,932.83
2016-12-02T05:56:26.770Z,932.79
2016-12-02T05:57:39.841Z,932.83
2016-12-02T05:58:53.485Z,932.86
2016-12-02T06:00:06.901Z,932.77
2016-12-02T06:01:19.739Z,932.85
2016-12-02T06:02:32.236Z,932.81
2016-12-02T06:03:45.813Z,932.84
2016-12-02T06:04:59.348Z,932.81
2016-12-02T06:06:12.911Z,932.84
2016-12-02T06:07:25.985Z,932.85
2016-12-02T06:08:39.910Z,932.82
2016-12-02T06:09:52.927Z,932.83
2016-12-02T06:11:06.461Z,932.89
2016-12-02T06:12:19.540Z,932.87
2016-12-02T06:13:33.090Z,932.87
2016-12-02T06:14:46.631Z,932.88
2016-12-02T06:16:00.218Z,932.97
2016-12-02T06:17:44.312Z,932.95
2016-12-02T06:18:57.290Z,932.98
2016-12-02T06:20:41.429Z,932.98
2016-12-02T06:21:55.031Z,933.01
2016-12-02T06:23:08.607Z,933.04
2016-12-02T06:24:22.135Z,933.06
2016-12-02T06:25:35.670Z,933.05
2016-12-02T06:26:48.747Z,933.04
2016-12-02T06:28:02.366Z,933.01
2016-12-02T06:29:15.967Z,932.98
2016-12-02T06:30:29.025Z,933.02
2016-12-02T06:31:41.612Z,932.99
2016-12-02T06:32:55.147Z,933.03
2016-12-02T06:34:07.789Z,933.05
2016-12-02T06:35:20.495Z,933.02
2016-12-02T06:36:33.568Z,933.03
2016-12-02T06:38:18.466Z,932.98
2016-12-02T06:39:32.090Z,932.93
2016-12-02T06:40:45.603Z,932.95
2016-12-02T06:41:59.162Z,932.99
2016-12-02T06:43:12.792Z,932.95
2016-12-02T06:44:26.602Z,932.98
2016-12-02T06:45:40.237Z,932.96
2016-12-02T06:46:53.752Z,932.96
2016-12-02T06:48:06.944Z,932.91
2016-12-02T06:49:20.174Z,932.96
2016-12-02T06:50:33.461Z,932.95
2016-12-02T06:51:47.354Z,932.9
2016-12-02T06:53:00.901Z,932.97
2016-12-02T06:54:14.457Z,932.95
2016-12-02T06:55:28.006Z,932.99
2016-12-02T06:56:40.681Z,933.02
2016-12-02T06:57:53.699Z,933.02
2016-12-02T06:59:07.279Z,933
2016-12-02T07:00:20.846Z,932.98
2016-12-02T07:01:34.362Z,932.96
2016-12-02T07:02:47.549Z,932.95
2016-12-02T07:04:00.616Z,932.95
2016-12-02T07:05:13.656Z,932.98
2016-12-02T07:06:27.223Z,932.98
2016-12-02T07:07:40.562Z,933
2016-12-02T07:08:54.167Z,932.98
2016-12-02T07:10:08.173Z,932.98
2016-12-02T07:11:21.226Z,933.04
2016-12-02T07:12:34.870Z,933.06
2016-12-02T07:13:48.603Z,933.08
2016-12-02T07:15:01.794Z,933.12
2016-12-02T07:16:15.377Z,933.13
2016-12-02T07:17:28.979Z,933.14
2016-12-02T07:18:42.526Z,933.14
2016-12-02T07:19:55.582Z,933.18
2016-12-02T07:21:09.252Z,933.22
2016-12-02T07:22:22.578Z,933.19
2016-12-02T07:23:35.117Z,933.19
2016-12-02T07:24:48.688Z,933.2
2016-12-02T07:26:02.270Z,933.18
2016-12-02T07:27:15.889Z,933.14
2016-12-02T07:28:29.402Z,933.21
2016-12-02T07:30:13.574Z,933.2
2016-12-02T07:31:26.612Z,933.19
2016-12-02T07:32:39.149Z,933.2
2016-12-02T07:33:52.762Z,933.2
2016-12-02T07:35:06.349Z,933.15
2016-12-02T07:36:19.981Z,933.18
2016-12-02T07:37:33.549Z,933.19
2016-12-02T07:38:47.387Z,933.27
2016-12-02T07:40:00.418Z,933.24
2016-12-02T07:41:14.294Z,933.31
2016-12-02T07:42:26.788Z,933.3
2016-12-02T07:43:39.956Z,933.31
2016-12-02T07:44:53.697Z,933.32
2016-12-02T07:46:07.243Z,933.35
2016-12-02T07:47:20.302Z,933.38
2016-12-02T07:48:33.838Z,933.42
2016-12-02T07:49:47.536Z,933.39
2016-12-02T07:51:01.103Z,933.43
2016-12-02T07:52:14.373Z,933.43
2016-12-02T07:53:27.938Z,933.43
2016-12-02T07:54:41.500Z,933.49
2016-12-02T07:55:55.107Z,933.51
2016-12-02T07:57:08.683Z,933.54
2016-12-02T07:58:22.225Z,933.58
2016-12-02T07:59:35.846Z,933.58
2016-12-02T08:00:49.488Z,933.61
2016-12-02T08:02:02.511Z,933.6
2016-12-02T08:03:15.272Z,933.61
2016-12-02T08:04:28.526Z,933.61
2016-12-02T08:05:42.136Z,933.63
2016-12-02T08:06:55.733Z,933.7
2016-12-02T08:08:08.735Z,933.71
2016-12-02T08:09:21.724Z,933.7
2016-12-02T08:10:35.328Z,933.75
2016-12-02T08:11:48.892Z,933.71
2016-12-02T08:13:02.514Z,933.73
2016-12-02T08:14:47.226Z,933.72
2016-12-02T08:16:00.326Z,933.78
2016-12-02T08:17:14.274Z,933.77
2016-12-02T08:18:27.643Z,933.79
2016-12-02T08:19:40.200Z,933.87
2016-12-02T08:20:53.747Z,933.85
2016-12-02T08:22:06.966Z,933.87
2016-12-02T08:23:19.966Z,933.86
2016-12-02T08:24:33.598Z,933.88
2016-12-02T08:26:18.051Z,933.86
2016-12-02T08:27:31.612Z,933.87
2016-12-02T08:28:45.235Z,933.88
2016-12-02T08:29:58.849Z,933.94
2016-12-02T08:31:12.378Z,933.99
2016-12-02T08:32:25.973Z,933.95
2016-12-02T08:33:38.458Z,933.98
2016-12-02T08:34:52.022Z,934.01
2016-12-02T08:36:05.550Z,934.01
2016-12-02T08:37:18.588Z,934.02
2016-12-02T08:38:32.184Z,933.98
2016-12-02T08:39:45.740Z,933.93
2016-12-02T08:40:59.008Z,933.93
2016-12-02T08:42:12.633Z,933.9
2016-12-02T08:43:26.165Z,933.89
2016-12-02T08:44:39.213Z,933.92
2016-12-02T08:45:52.802Z,933.94
2016-12-02T08:47:06.355Z,933.93
2016-12-02T08:48:19.357Z,933.97
2016-12-02T08:49:32.944Z,934.01
2016-12-02T08:50:46.525Z,934.02
2016-12-02T08:51:59.772Z,933.98
2016-12-02T08:53:13.363Z,934.01
2016-12-02T08:54:26.991Z,933.99
2016-12-02T08:55:40.512Z,934.02
2016-12-02T08:56:53.500Z,933.98
2016-12-02T08:58:07.041Z,933.94
2016-12-02T08:59:20.651Z,933.95
2016-12-02T09:00:34.204Z,933.92
2016-12-02T09:01:47.765Z,933.97
2016-12-02T09:03:00.793Z,933.94
2016-12-02T09:04:14.377Z,933.93
2016-12-02T09:05:27.932Z,933.89
2016-12-02T09:06:41.217Z,933.92
2016-12-02T09:07:54.768Z,933.93
2016-12-02T09:09:08.318Z,933.95
2016-12-02T09:10:21.921Z,933.97
2016-12-02T09:11:34.967Z,934.01
2016-12-02T09:12:48.550Z,934.04
2016-12-02T09:14:01.866Z,934.05
2016-12-02T09:15:14.638Z,934.09
2016-12-02T09:16:59.344Z,934.12
2016-12-02T09:18:12.932Z,934.17
2016-12-02T09:19:25.961Z,934.2
2016-12-02T09:20:39.475Z,934.18
2016-12-02T09:21:53.054Z,934.17
2016-12-02T09:23:06.167Z,934.13
2016-12-02T09:24:49.782Z,934.11
2016-12-02T09:26:03.354Z,934.13
2016-12-02T09:27:16.914Z,934.11
2016-12-02T09:28:29.990Z,934.1
2016-12-02T09:29:42.762Z,934.13
2016-12-02T09:30:55.812Z,934.18
2016-12-02T09:32:08.888Z,934.16
2016-12-02T09:33:21.941Z,934.18
2016-12-02T09:34:35.519Z,934.18
2016-12-02T09:35:49.094Z,934.15
2016-12-02T09:37:02.710Z,934.18
2016-12-02T09:38:16.349Z,934.16
2016-12-02T09:39:29.430Z,934.19
2016-12-02T09:40:42.645Z,934.18
2016-12-02T09:41:55.723Z,934.18
2016-12-02T09:43:08.773Z,934.19
2016-12-02T09:44:22.363Z,934.22
2016-12-02T09:45:35.399Z,934.21
2016-12-02T09:46:48.998Z,934.24
2016-12-02T09:48:02.660Z,934.23
2016-12-02T09:49:16.261Z,934.28
2016-12-02T09:50:29.882Z,934.3
2016-12-02T09:51:43.493Z,934.28
2016-12-02T09:52:57.041Z,934.28
2016-12-02T09:54:10.605Z,934.27
2016-12-02T09:55:23.196Z,934.28
2016-12-02T09:56:36.255Z,934.3
2016-12-02T09:57:49.335Z,934.31
2016-12-02T09:59:02.824Z,934.31
2016-12-02T10:00:16.082Z,934.33
2016-12-02T10:01:28.599Z,934.37
2016-12-02T10:02:42.146Z,934.31
2016-12-02T10:03:54.676Z,934.36
2016-12-02T10:05:07.705Z,934.34
2016-12-02T10:06:21.384Z,934.32
2016-12-02T10:07:34.977Z,934.33
2016-12-02T10:08:48.101Z,934.33
2016-12-02T10:10:01.769Z,934.27
2016-12-02T10:11:15.348Z,934.28
2016-12-02T10:12:28.889Z,934.29
2016-12-02T10:13:42.489Z,934.27
2016-12-02T10:14:55.580Z,934.28
2016-12-02T10:16:08.675Z,934.29
2016-12-02T10:17:21.733Z,934.3
2016-12-02T10:18:35.313Z,934.32
2016-12-02T10:19:48.833Z,934.33
2016-12-02T10:21:01.886Z,934.32
2016-12-02T10:22:15.444Z,934.32
2016-12-02T10:23:28.445Z,934.31
2016-12-02T10:24:42.085Z,934.32
2016-12-02T10:26:26.787Z,934.32
2016-12-02T10:27:40.366Z,934.3
2016-12-02T10:28:53.988Z,934.35
2016-12-02T10:30:07.050Z,934.36
2016-12-02T10:31:20.599Z,934.36
2016-12-02T10:32:34.228Z,934.38
2016-12-02T10:33:47.828Z,934.4
2016-12-02T10:35:00.830Z,934.39
2016-12-02T10:36:13.376Z,934.42
2016-12-02T10:37:26.186Z,934.42
2016-12-02T10:38:39.314Z,934.43
2016-12-02T10:39:52.867Z,934.46
2016-12-02T10:41:06.417Z,934.42
2016-12-02T10:42:19.956Z,934.41
2016-12-02T10:43:32.974Z,934.4
2016-12-02T10:44:45.717Z,934.37
2016-12-02T10:45:59.348Z,934.37
2016-12-02T10:47:12.372Z,934.41
2016-12-02T10:48:26.010Z,934.41
2016-12-02T10:49:39.595Z,934.38
2016-12-02T10:50:53.190Z,934.41
2016-12-02T10:52:06.447Z,934.4
2016-12-02T10:53:20.043Z,934.36
2016-12-02T10:54:33.674Z,934.38
2016-12-02T10:55:46.434Z,934.39
2016-12-02T10:56:58.975Z,934.41
2016-12-02T10:58:11.992Z,934.39
2016-12-02T10:59:25.565Z,934.39
2016-12-02T11:00:39.184Z,934.38
2016-12-02T11:01:52.786Z,934.41
2016-12-02T11:03:05.928Z,934.4
2016-12-02T11:04:19.869Z,934.4
2016-12-02T11:05:33.414Z,934.45
2016-12-02T11:06:47.046Z,934.43
2016-12-02T11:08:00.075Z,934.41
2016-12-02T11:09:13.103Z,934.42
2016-12-02T11:10:26.696Z,934.42
2016-12-02T11:11:40.255Z,934.51
2016-12-02T11:12:53.874Z,934.48
2016-12-02T11:14:07.477Z,934.46
2016-12-02T11:15:21.084Z,934.5
2016-12-02T11:16:34.606Z,934.46
2016-12-02T11:17:47.639Z,934.5
2016-12-02T11:19:00.165Z,934.51
2016-12-02T11:20:13.740Z,934.52
2016-12-02T11:21:27.320Z,934.51
2016-12-02T11:22:40.359Z,934.51
2016-12-02T11:23:53.458Z,934.47
2016-12-02T11:25:07.029Z,934.47
2016-12-02T11:26:20.080Z,934.43
2016-12-02T11:27:33.629Z,934.46
2016-12-02T11:28:46.590Z,934.46
2016-12-02T11:29:59.882Z,934.46
2016-12-02T11:31:13.664Z,934.47
2016-12-02T11:32:27.363Z,934.46
2016-12-02T11:33:41.226Z,934.49
2016-12-02T11:34:54.767Z,934.48
2016-12-02T11:36:08.242Z,934.46
2016-12-02T11:37:21.357Z,934.45
2016-12-02T11:38:34.951Z,934.46
2016-12-02T11:39:48.500Z,934.43
2016-12-02T11:41:02.048Z,934.47
2016-12-02T11:42:15.626Z,934.48
2016-12-02T11:43:29.251Z,934.48
2016-12-02T11:44:42.908Z,934.51
2016-12-02T11:45:56.466Z,934.48
2016-12-02T11:47:09.494Z,934.45
2016-12-02T11:48:22.541Z,934.4
2016-12-02T11:49:34.480Z,934.4
2016-12-02T11:50:48.004Z,934.38
2016-12-02T11:52:32.697Z,934.37
2016-12-02T11:53:45.707Z,934.37
2016-12-02T11:54:59.301Z,934.37
2016-12-02T11:56:12.327Z,934.35
2016-12-02T11:57:25.344Z,934.34
2016-12-02T11:58:38.387Z,934.32
2016-12-02T11:59:51.670Z,934.31
2016-12-02T12:01:05.191Z,934.33
2016-12-02T12:02:17.659Z,934.36
2016-12-02T12:03:31.299Z,934.32
2016-12-02T12:04:44.832Z,934.35
2016-12-02T12:05:57.869Z,934.4
2016-12-02T12:07:11.432Z,934.34
2016-12-02T12:08:24.484Z,934.35
2016-12-02T12:09:38.217Z,934.36
2016-12-02T12:10:50.219Z,934.36
2016-12-02T12:12:03.171Z,934.39
2016-12-02T12:13:16.686Z,934.36
2016-12-02T12:14:30.184Z,934.31
2016-12-02T12:15:43.743Z,934.38
2016-12-02T12:16:57.255Z,934.36
2016-12-02T12:18:10.276Z,934.41
2016-12-02T12:19:23.271Z,934.41
2016-12-02T12:20:35.847Z,934.38
2016-12-02T12:21:48.860Z,934.39
2016-12-02T12:23:02.413Z,934.38
2016-12-02T12:24:15.425Z,934.38
2016-12-02T12:25:28.942Z,934.39
2016-12-02T12:26:41.966Z,934.4
2016-12-02T12:27:54.494Z,934.42
2016-12-02T12:29:07.097Z,934.41
2016-12-02T12:30:20.649Z,934.42
2016-12-02T12:31:34.194Z,934.4
2016-12-02T12:32:47.734Z,934.34
2016-12-02T12:34:32.345Z,934.35
2016-12-02T12:35:45.968Z,934.36
2016-12-02T12:36:58.973Z,934.36
2016-12-02T12:38:12.544Z,934.36
2016-12-02T12:39:25.034Z,934.39
2016-12-02T12:40:38.583Z,934.41
2016-12-02T12:41:52.201Z,934.38
2016-12-02T12:43:04.683Z,934.37
2016-12-02T12:44:17.146Z,934.31
2016-12-02T12:45:30.128Z,934.32
2016-12-02T12:46:43.185Z,934.33
2016-12-02T12:47:56.724Z,934.35
2016-12-02T12:49:10.229Z,934.34
2016-12-02T12:50:22.706Z,934.35
2016-12-02T12:51:35.748Z,934.3
2016-12-02T12:52:48.861Z,934.32
2016-12-02T12:54:02.386Z,934.29
2016-12-02T12:55:15.949Z,934.34
2016-12-02T12:56:29.497Z,934.32
2016-12-02T12:57:42.907Z,934.31
2016-12-02T12:58:55.998Z,934.34
2016-12-02T13:00:09.573Z,934.35
2016-12-02T13:01:23.147Z,934.36
2016-12-02T13:02:36.128Z,934.34
2016-12-02T13:03:49.137Z,934.29
2016-12-02T13:05:02.104Z,934.34
2016-12-02T13:06:15.712Z,934.33
2016-12-02T13:07:29.302Z,934.34
2016-12-02T13:08:41.729Z,934.35
2016-12-02T13:09:55.305Z,934.34
2016-12-02T13:11:08.309Z,934.33
2016-12-02T13:12:52.988Z,934.29
2016-12-02T13:14:05.975Z,934.29
2016-12-02T13:15:19.518Z,934.32
2016-12-02T13:16:33.040Z,934.32
2016-12-02T13:17:46.650Z,934.29
2016-12-02T13:18:59.724Z,934.32
2016-12-02T13:20:44.444Z,934.31
2016-12-02T13:21:58.081Z,934.28
2016-12-02T13:23:10.804Z,934.29
2016-12-02T13:24:23.782Z,934.25
2016-12-02T13:25:37.403Z,934.27
2016-12-02T13:26:50.946Z,934.22
2016-12-02T13:28:04.493Z,934.21
2016-12-02T13:29:18.088Z,934.23
2016-12-02T13:30:45.453Z,934.25
2016-12-02T13:31:57.923Z,934.18
2016-12-02T13:33:11.293Z,934.18
2016-12-02T13:34:24.338Z,934.17
2016-12-02T13:35:37.097Z,934.18
2016-12-02T13:36:50.058Z,934.2
2016-12-02T13:38:03.087Z,934.19
2016-12-02T13:39:16.023Z,934.22
2016-12-02T13:40:29.497Z,934.18
2016-12-02T13:41:42.054Z,934.18
2016-12-02T13:42:54.569Z,934.1
2016-12-02T13:44:07.581Z,934.12
2016-12-02T13:45:21.153Z,934.08
2016-12-02T13:46:34.205Z,934.06
2016-12-02T13:47:47.213Z,934.11
2016-12-02T13:49:00.281Z,934.07
2016-12-02T13:50:12.218Z,934.08
2016-12-02T13:51:25.182Z,934.07
2016-12-02T13:52:37.783Z,934.01
2016-12-02T13:53:49.743Z,934.04
2016-12-02T13:55:03.320Z,933.95
2016-12-02T13:56:16.349Z,933.97
2016-12-02T13:57:29.916Z,933.93
2016-12-02T13:58:43.587Z,934.01
2016-12-02T13:59:57.135Z,934.01
2016-12-02T14:01:09.651Z,934
2016-12-02T14:02:22.626Z,933.95
2016-12-02T14:03:36.161Z,933.95
2016-12-02T14:04:49.644Z,933.89
2016-12-02T14:06:02.759Z,933.82
2016-12-02T14:07:15.849Z,933.85
2016-12-02T14:08:29.470Z,933.86
2016-12-02T14:09:43.036Z,933.88
2016-12-02T14:10:55.579Z,933.9
2016-12-02T14:12:08.641Z,933.88
2016-12-02T14:13:22.169Z,933.91
2016-12-02T14:14:34.707Z,933.91
2016-12-02T14:15:48.268Z,933.9
2016-12-02T14:17:01.824Z,933.86
2016-12-02T14:18:14.892Z,933.84
2016-12-02T14:19:27.954Z,933.81
2016-12-02T14:20:41.435Z,933.79
2016-12-02T14:21:54.392Z,933.8
2016-12-02T14:23:07.451Z,933.76
2016-12-02T14:24:20.732Z,933.73
2016-12-02T14:25:34.261Z,933.75
2016-12-02T14:26:47.275Z,933.7
2016-12-02T14:28:00.835Z,933.73
2016-12-02T14:29:14.441Z,933.74
2016-12-02T14:30:27.400Z,933.74
2016-12-02T14:31:40.934Z,933.76
2016-12-02T14:32:54.469Z,933.72
2016-12-02T14:34:08.313Z,933.73
2016-12-02T14:35:21.344Z,933.75
2016-12-02T14:36:34.903Z,933.7
2016-12-02T14:37:47.913Z,933.69
2016-12-02T14:39:01.496Z,933.7
2016-12-02T14:40:14.514Z,933.59
2016-12-02T14:41:27.529Z,933.58
2016-12-02T14:42:40.571Z,933.59
2016-12-02T14:43:54.170Z,933.54
2016-12-02T14:45:07.784Z,933.53
2016-12-02T14:46:20.313Z,933.53
2016-12-02T14:47:33.338Z,933.51
2016-12-02T14:48:45.838Z,933.51
2016-12-02T14:49:59.399Z,933.48
2016-12-02T14:51:12.457Z,933.48
2016-12-02T14:52:26.113Z,933.48
2016-12-02T14:53:39.653Z,933.52
2016-12-02T14:54:53.206Z,933.48
2016-12-02T14:56:06.227Z,933.52
2016-12-02T14:57:18.731Z,933.51
2016-12-02T14:58:31.748Z,933.56
2016-12-02T14:59:45.249Z,933.54
2016-12-02T15:00:58.271Z,933.53
2016-12-02T15:02:11.813Z,933.51
2016-12-02T15:03:25.376Z,933.54
2016-12-02T15:04:38.430Z,933.53
2016-12-02T15:05:51.438Z,933.55
2016-12-02T15:07:03.907Z,933.47
2016-12-02T15:08:17.095Z,933.42
2016-12-02T15:09:30.643Z,933.4
2016-12-02T15:10:43.635Z,933.35
2016-12-02T15:11:56.656Z,933.33
2016-12-02T15:13:09.193Z,933.33
2016-12-02T15:14:21.711Z,933.28
2016-12-02T15:15:35.347Z,933.32
2016-12-02T15:16:48.902Z,933.35
2016-12-02T15:18:01.934Z,933.36
2016-12-02T15:19:14.971Z,933.37
2016-12-02T15:20:28.534Z,933.33
2016-12-02T15:21:41.507Z,933.34
2016-12-02T15:22:53.975Z,933.33
2016-12-02T15:24:07.537Z,933.27
2016-12-02T15:25:20.638Z,933.28
2016-12-02T15:26:33.703Z,933.31
2016-12-02T15:28:18.584Z,933.34
2016-12-02T15:29:32.157Z,933.33
2016-12-02T15:30:45.719Z,933.32